Time;durP1;ratioP1;P1;durP2;ratioP2;P2;SDS_P1;SDS_P2;PMS_P1;PMS_P2;Temp;Humidity;BMP_temperature;BMP_pressure;BME280_temperature;BME280_humidity;BME280_pressure;Samples;Min_cycle;Max_cycle;Signal;HPM_P1;HPM_P2
2023/03/14 00:00:55;;;;;;;4.32;2.13;;;;;;;;;;5012043;28;20488;-75
2023/03/14 00:03:21;;;;;;;4.20;2.42;;;;;;;;;;5012625;28;20034;-75
2023/03/14 00:05:47;;;;;;;3.58;2.60;;;;;;;;;;5013314;28;20108;-76
2023/03/14 00:08:13;;;;;;;3.58;2.35;;;;;;;;;;5012689;28;20068;-76
2023/03/14 00:10:40;;;;;;;5.28;2.47;;;;;;;;;;5012876;28;20033;-75
2023/03/14 00:13:06;;;;;;;3.33;2.20;;;;;;;;;;4995297;28;20026;-75
2023/03/14 00:15:35;;;;;;;4.25;2.83;;;;;;;;;;5012918;28;20033;-75
2023/03/14 00:18:01;;;;;;;3.88;2.63;;;;;;;;;;5012755;28;20579;-75
2023/03/14 00:20:27;;;;;;;3.53;2.78;;;;;;;;;;5012739;28;20029;-75
2023/03/14 00:22:53;;;;;;;4.68;2.90;;;;;;;;;;5012585;28;20030;-75
2023/03/14 00:25:19;;;;;;;3.95;3.20;;;;;;;;;;5012669;28;20362;-76
2023/03/14 00:27:45;;;;;;;3.60;3.00;;;;;;;;;;5013082;28;20033;-76
2023/03/14 00:30:11;;;;;;;4.20;2.97;;;;;;;;;;5012896;28;20014;-74
2023/03/14 00:32:37;;;;;;;7.88;3.78;;;;;;;;;;5012476;28;20054;-75
2023/03/14 00:35:04;;;;;;;8.98;4.20;;;;;;;;;;5012427;28;20029;-75
2023/03/14 00:37:30;;;;;;;6.05;3.63;;;;;;;;;;4994583;28;20030;-76
2023/03/14 00:39:56;;;;;;;5.93;3.72;;;;;;;;;;4994827;28;20026;-76
2023/03/14 00:42:22;;;;;;;8.50;3.97;;;;;;;;;;5011287;28;20514;-77
2023/03/14 00:44:48;;;;;;;7.68;4.30;;;;;;;;;;5013218;28;20034;-75
2023/03/14 00:47:14;;;;;;;5.15;4.10;;;;;;;;;;5011821;28;20018;-75
2023/03/14 00:49:43;;;;;;;4.90;3.90;;;;;;;;;;5012227;28;20384;-76
2023/03/14 00:52:09;;;;;;;5.07;4.05;;;;;;;;;;5012245;28;20060;-76
2023/03/14 00:54:35;;;;;;;5.22;4.47;;;;;;;;;;5012123;28;20092;-76
2023/03/14 00:57:01;;;;;;;6.53;4.53;;;;;;;;;;5011838;28;20030;-75
2023/03/14 00:59:27;;;;;;;5.68;4.57;;;;;;;;;;5012157;28;20026;-76
2023/03/14 01:01:53;;;;;;;9.02;4.68;;;;;;;;;;5012044;28;20029;-76
2023/03/14 01:04:19;;;;;;;4.88;3.83;;;;;;;;;;5012350;28;20026;-77
2023/03/14 01:06:45;;;;;;;3.85;3.10;;;;;;;;;;5012199;28;20028;-76
2023/03/14 01:09:11;;;;;;;5.28;3.10;;;;;;;;;;5011894;28;20053;-76
2023/03/14 01:11:37;;;;;;;3.38;2.47;;;;;;;;;;5012125;28;20366;-77
2023/03/14 01:14:03;;;;;;;3.20;1.77;;;;;;;;;;4994642;28;20113;-76
2023/03/14 01:16:31;;;;;;;2.33;1.70;;;;;;;;;;5012669;28;20286;-77
2023/03/14 01:18:57;;;;;;;4.63;3.28;;;;;;;;;;5011840;28;20050;-76
2023/03/14 01:21:28;;;;;;;5.95;3.35;;;;;;;;;;5011848;28;20470;-77
2023/03/14 01:23:55;;;;;;;3.20;2.80;;;;;;;;;;5012045;28;20400;-77
2023/03/14 01:26:22;;;;;;;4.03;3.38;;;;;;;;;;5011577;28;20045;-75
2023/03/14 01:28:49;;;;;;;4.20;3.35;;;;;;;;;;5011913;28;20404;-74
2023/03/14 01:31:15;;;;;;;5.90;3.75;;;;;;;;;;5011718;28;20049;-75
2023/03/14 01:33:42;;;;;;;3.17;2.88;;;;;;;;;;5011612;28;20614;-75
2023/03/14 01:36:09;;;;;;;4.43;3.03;;;;;;;;;;5011503;28;20033;-75
2023/03/14 01:38:35;;;;;;;4.22;3.25;;;;;;;;;;5011228;28;20488;-73
2023/03/14 01:41:01;;;;;;;7.47;5.32;;;;;;;;;;5011508;28;20635;-73
2023/03/14 01:43:28;;;;;;;7.18;5.38;;;;;;;;;;5011782;28;20053;-72
2023/03/14 01:46:00;;;;;;;3.20;2.90;;;;;;;;;;5011776;28;20164;-74
2023/03/14 01:48:27;;;;;;;8.43;6.45;;;;;;;;;;5011555;28;20037;-72
2023/03/14 01:50:54;;;;;;;4.22;3.20;;;;;;;;;;5011645;28;20468;-74
2023/03/14 01:53:21;;;;;;;3.25;2.95;;;;;;;;;;5011238;28;20022;-75
2023/03/14 01:55:48;;;;;;;4.18;3.78;;;;;;;;;;5026242;28;20059;-75
2023/03/14 01:58:15;;;;;;;4.43;3.20;;;;;;;;;;5031184;28;20125;-75
2023/03/14 02:00:41;;;;;;;5.15;4.05;;;;;;;;;;5031076;28;20034;-75
2023/03/14 02:03:09;;;;;;;5.88;4.35;;;;;;;;;;5031134;28;20094;-76
2023/03/14 02:05:37;;;;;;;4.25;3.63;;;;;;;;;;5031152;28;20472;-76
2023/03/14 02:08:06;;;;;;;6.65;5.28;;;;;;;;;;5031054;28;20027;-75
2023/03/14 02:10:34;;;;;;;4.55;4.00;;;;;;;;;;5031333;28;20029;-75
2023/03/14 02:13:02;;;;;;;4.10;3.55;;;;;;;;;;5031332;28;20029;-75
2023/03/14 02:15:28;;;;;;;4.38;2.42;;;;;;;;;;5031209;28;20026;-75
2023/03/14 02:17:54;;;;;;;3.38;2.70;;;;;;;;;;5031101;28;20033;-75
2023/03/14 02:20:26;;;;;;;3.00;1.75;;;;;;;;;;5013642;28;20037;-75
2023/03/14 02:22:53;;;;;;;2.65;1.65;;;;;;;;;;5031676;28;20031;-74
2023/03/14 02:25:37;;;;;;;4.82;3.05;;;;;;;;;;5034431;28;20028;-75
2023/03/14 02:28:04;;;;;;;6.30;3.55;;;;;;;;;;5048060;28;20033;-75
2023/03/14 02:30:30;;;;;;;1.10;1.00;;;;;;;;;;5041706;28;20060;-75
2023/03/14 02:33:03;;;;;;;2.75;0.93;;;;;;;;;;5018646;28;20053;-74
2023/03/14 02:35:32;;;;;;;1.38;1.27;;;;;;;;;;5034685;28;20025;-73
2023/03/14 02:37:58;;;;;;;3.15;2.53;;;;;;;;;;5034117;28;20029;-75
2023/03/14 02:40:24;;;;;;;1.83;1.30;;;;;;;;;;5034397;28;20048;-75
2023/03/14 02:42:50;;;;;;;2.58;1.45;;;;;;;;;;5016630;28;20021;-75
2023/03/14 02:45:16;;;;;;;7.63;4.50;;;;;;;;;;5034228;28;20013;-75
2023/03/14 02:47:46;;;;;;;0.70;0.50;;;;;;;;;;5033943;28;20063;-75
2023/03/14 02:50:17;;;;;;;0.63;0.43;;;;;;;;;;5034392;28;20024;-75
2023/03/14 02:52:43;;;;;;;0.73;0.57;;;;;;;;;;5015981;28;20115;-77
2023/03/14 02:55:10;;;;;;;0.98;0.57;;;;;;;;;;5014510;28;20056;-76
2023/03/14 02:57:36;;;;;;;0.57;0.43;;;;;;;;;;5014018;28;20058;-76
2023/03/14 03:00:06;;;;;;;0.55;0.55;;;;;;;;;;4996584;28;20549;-75
2023/03/14 03:02:33;;;;;;;0.20;0.20;;;;;;;;;;4996606;28;20064;-76
2023/03/14 03:04:59;;;;;;;0.90;0.73;;;;;;;;;;5014431;28;20044;-77
2023/03/14 03:07:25;;;;;;;1.48;0.30;;;;;;;;;;5013840;28;20520;-76
2023/03/14 03:09:51;;;;;;;0.22;0.22;;;;;;;;;;5014137;28;20024;-75
2023/03/14 03:12:17;;;;;;;0.85;0.20;;;;;;;;;;5013873;28;20029;-76
2023/03/14 03:14:43;;;;;;;1.63;0.57;;;;;;;;;;4996431;28;20033;-75
2023/03/14 03:17:09;;;;;;;0.10;0.10;;;;;;;;;;5013604;28;20033;-75
2023/03/14 03:19:35;;;;;;;0.20;0.20;;;;;;;;;;4996228;28;20037;-76
2023/03/14 03:22:01;;;;;;;1.42;0.28;;;;;;;;;;5013606;28;20030;-76
2023/03/14 03:24:27;;;;;;;0.50;0.45;;;;;;;;;;5013597;28;20029;-74
2023/03/14 03:26:53;;;;;;;1.98;0.60;;;;;;;;;;5013605;28;20116;-74
2023/03/14 03:29:19;;;;;;;1.60;0.80;;;;;;;;;;5013623;28;20018;-75
2023/03/14 03:31:45;;;;;;;1.85;0.90;;;;;;;;;;5013552;28;20026;-76
2023/03/14 03:34:12;;;;;;;1.88;0.75;;;;;;;;;;5013752;28;20034;-75
2023/03/14 03:36:38;;;;;;;1.92;0.90;;;;;;;;;;5013264;28;20041;-75
2023/03/14 03:39:04;;;;;;;1.30;0.98;;;;;;;;;;5013261;28;20400;-75
2023/03/14 03:41:31;;;;;;;1.45;0.68;;;;;;;;;;5013982;28;20033;-75
2023/03/14 03:43:57;;;;;;;2.67;0.95;;;;;;;;;;5013652;28;20471;-75
2023/03/14 03:46:23;;;;;;;2.30;0.70;;;;;;;;;;5013666;28;20130;-75
2023/03/14 03:48:54;;;;;;;1.67;0.50;;;;;;;;;;5013238;28;20022;-74
2023/03/14 03:51:20;;;;;;;2.65;0.70;;;;;;;;;;5013186;28;20473;-75
2023/03/14 03:53:46;;;;;;;3.35;1.38;;;;;;;;;;5013007;28;20050;-76
2023/03/14 03:56:12;;;;;;;1.13;0.40;;;;;;;;;;5013610;28;20036;-74
2023/03/14 03:58:38;;;;;;;1.90;0.52;;;;;;;;;;5012835;28;20473;-74
2023/03/14 04:01:06;;;;;;;0.40;0.20;;;;;;;;;;5012933;28;20072;-75
2023/03/14 04:03:32;;;;;;;0.40;0.40;;;;;;;;;;5012849;28;20033;-74
2023/03/14 04:05:58;;;;;;;0.13;0.13;;;;;;;;;;4995473;28;20026;-74
2023/03/14 04:08:24;;;;;;;0.32;0.32;;;;;;;;;;5012868;28;20037;-76
2023/03/14 04:10:54;;;;;;;0.55;0.32;;;;;;;;;;5012697;28;20022;-74
2023/03/14 04:13:20;;;;;;;0.63;0.43;;;;;;;;;;5013188;28;20453;-74
2023/03/14 04:15:46;;;;;;;0.82;0.28;;;;;;;;;;5012776;28;20057;-75
2023/03/14 04:18:12;;;;;;;1.10;0.32;;;;;;;;;;5012801;28;20038;-75
2023/03/14 04:20:38;;;;;;;1.50;0.50;;;;;;;;;;5012945;28;20029;-73
2023/03/14 04:23:04;;;;;;;1.38;0.22;;;;;;;;;;5012677;28;20029;-74
2023/03/14 04:25:30;;;;;;;1.10;0.73;;;;;;;;;;5012318;28;20480;-74
2023/03/14 04:27:56;;;;;;;0.90;0.60;;;;;;;;;;5012738;28;20030;-74
2023/03/14 04:30:22;;;;;;;1.75;0.90;;;;;;;;;;5012632;28;20041;-74
2023/03/14 04:32:48;;;;;;;1.70;1.40;;;;;;;;;;5012840;28;20033;-74
2023/03/14 04:35:14;;;;;;;1.85;1.45;;;;;;;;;;5012535;28;20400;-75
2023/03/14 04:37:43;;;;;;;0.40;0.28;;;;;;;;;;5011303;28;20384;-74
2023/03/14 04:40:09;;;;;;;0.95;0.77;;;;;;;;;;5011088;28;20044;-75
2023/03/14 04:42:35;;;;;;;1.50;0.98;;;;;;;;;;5011443;28;20072;-75
2023/03/14 04:45:01;;;;;;;1.88;0.82;;;;;;;;;;5012691;28;20026;-75
2023/03/14 04:47:27;;;;;;;1.38;0.75;;;;;;;;;;5012134;28;20389;-74
2023/03/14 04:49:53;;;;;;;3.35;1.38;;;;;;;;;;5012815;28;20022;-73
2023/03/14 04:52:20;;;;;;;6.47;3.47;;;;;;;;;;5013526;28;20084;-74
2023/03/14 04:54:46;;;;;;;3.88;1.48;;;;;;;;;;4995256;28;20495;-74
2023/03/14 04:57:12;;;;;;;1.67;1.27;;;;;;;;;;5012047;28;20084;-75
2023/03/14 04:59:38;;;;;;;1.40;0.88;;;;;;;;;;5013352;28;20030;-74
2023/03/14 05:02:04;;;;;;;2.70;0.88;;;;;;;;;;5012857;28;20586;-75
2023/03/14 05:04:32;;;;;;;2.58;1.50;;;;;;;;;;5012902;28;20349;-75
2023/03/14 05:06:58;;;;;;;5.20;2.58;;;;;;;;;;5012490;28;20026;-72
2023/03/14 05:09:24;;;;;;;2.05;1.02;;;;;;;;;;5012563;28;20033;-74
2023/03/14 05:11:50;;;;;;;3.05;0.98;;;;;;;;;;5011929;28;20072;-73
2023/03/14 05:14:16;;;;;;;2.10;0.68;;;;;;;;;;4994365;28;20076;-75
2023/03/14 05:16:42;;;;;;;1.63;0.80;;;;;;;;;;5011769;28;20460;-74
2023/03/14 05:19:08;;;;;;;3.83;1.55;;;;;;;;;;5011597;28;20041;-76
2023/03/14 05:21:34;;;;;;;3.53;0.70;;;;;;;;;;5011700;28;20116;-75
2023/03/14 05:24:00;;;;;;;4.97;1.13;;;;;;;;;;5011492;28;20492;-75
2023/03/14 05:26:26;;;;;;;3.35;1.52;;;;;;;;;;5011701;28;20030;-75
2023/03/14 05:28:52;;;;;;;2.85;1.48;;;;;;;;;;4993833;28;20021;-73
2023/03/14 05:31:18;;;;;;;4.82;1.50;;;;;;;;;;4994127;28;20508;-74
2023/03/14 05:33:44;;;;;;;3.95;1.83;;;;;;;;;;5011792;28;20029;-75
2023/03/14 05:36:10;;;;;;;4.25;1.13;;;;;;;;;;5011613;28;20022;-75
2023/03/14 05:38:36;;;;;;;4.50;1.40;;;;;;;;;;5011515;28;20026;-73
2023/03/14 05:41:02;;;;;;;7.95;2.92;;;;;;;;;;5011858;28;20381;-75
2023/03/14 05:43:28;;;;;;;3.83;1.00;;;;;;;;;;4994076;28;20029;-74
2023/03/14 05:45:54;;;;;;;6.50;2.20;;;;;;;;;;5011596;28;20081;-74
2023/03/14 05:48:21;;;;;;;3.35;0.98;;;;;;;;;;5011855;28;20069;-76
2023/03/14 05:50:48;;;;;;;3.55;1.52;;;;;;;;;;5011759;28;20022;-75
2023/03/14 05:53:14;;;;;;;4.07;1.20;;;;;;;;;;5011534;28;20370;-75
2023/03/14 05:55:40;;;;;;;5.53;1.98;;;;;;;;;;5011731;28;20083;-75
2023/03/14 05:58:06;;;;;;;4.00;1.10;;;;;;;;;;5011403;28;20110;-76
2023/03/14 06:00:32;;;;;;;2.85;1.17;;;;;;;;;;5015476;28;20500;-76
2023/03/14 06:02:58;;;;;;;4.97;1.58;;;;;;;;;;5015481;28;20034;-77
2023/03/14 06:05:24;;;;;;;6.05;2.15;;;;;;;;;;5015421;28;20510;-76
2023/03/14 06:07:50;;;;;;;5.03;1.55;;;;;;;;;;5015109;28;20484;-76
2023/03/14 06:10:16;;;;;;;7.95;2.70;;;;;;;;;;4997893;28;20484;-76
2023/03/14 06:12:42;;;;;;;4.18;1.58;;;;;;;;;;5015270;28;20033;-75
2023/03/14 06:15:09;;;;;;;4.55;1.30;;;;;;;;;;5015287;28;20026;-75
2023/03/14 06:17:35;;;;;;;6.10;2.58;;;;;;;;;;5014856;28;20026;-75
2023/03/14 06:20:01;;;;;;;7.30;2.30;;;;;;;;;;5015882;28;20053;-76
2023/03/14 06:22:27;;;;;;;6.90;1.50;;;;;;;;;;5014888;28;20030;-75
2023/03/14 06:24:53;;;;;;;5.03;2.00;;;;;;;;;;5014836;28;20365;-75
2023/03/14 06:27:19;;;;;;;4.65;1.55;;;;;;;;;;5014640;28;20026;-74
2023/03/14 06:29:45;;;;;;;6.05;1.52;;;;;;;;;;5014809;28;20125;-73
2023/03/14 06:32:11;;;;;;;10.02;1.83;;;;;;;;;;5014686;28;20068;-74
2023/03/14 06:34:38;;;;;;;3.95;1.20;;;;;;;;;;5014615;28;20063;-73
2023/03/14 06:37:04;;;;;;;9.07;2.67;;;;;;;;;;5014455;28;20022;-73
2023/03/14 06:39:31;;;;;;;5.10;1.73;;;;;;;;;;5014690;28;20026;-75
2023/03/14 06:41:57;;;;;;;7.05;1.90;;;;;;;;;;4996977;28;20069;-75
2023/03/14 06:44:23;;;;;;;3.20;1.65;;;;;;;;;;5015396;28;20037;-75
2023/03/14 06:46:49;;;;;;;5.05;1.40;;;;;;;;;;4996390;28;20022;-75
2023/03/14 06:49:15;;;;;;;5.68;1.50;;;;;;;;;;5014258;28;20024;-74
2023/03/14 06:51:41;;;;;;;6.03;2.60;;;;;;;;;;5014417;28;20395;-75
2023/03/14 06:54:07;;;;;;;5.63;2.13;;;;;;;;;;5013929;28;20022;-75
2023/03/14 06:56:33;;;;;;;3.95;1.23;;;;;;;;;;5014098;28;20022;-74
2023/03/14 06:58:59;;;;;;;5.40;1.65;;;;;;;;;;5013825;28;20036;-75
2023/03/14 07:01:26;;;;;;;2.72;0.85;;;;;;;;;;4996340;28;20022;-73
2023/03/14 07:03:52;;;;;;;3.88;1.10;;;;;;;;;;5018299;28;20132;-76
2023/03/14 07:06:19;;;;;;;6.63;1.67;;;;;;;;;;5013422;28;20026;-74
2023/03/14 07:08:45;;;;;;;7.90;1.90;;;;;;;;;;5015314;28;20018;-74
2023/03/14 07:11:12;;;;;;;7.03;1.40;;;;;;;;;;5013267;28;20018;-74
2023/03/14 07:13:38;;;;;;;4.95;1.42;;;;;;;;;;5013923;28;20022;-74
2023/03/14 07:16:04;;;;;;;5.20;1.30;;;;;;;;;;5014017;28;20029;-75
2023/03/14 07:18:30;;;;;;;1.33;1.13;;;;;;;;;;5013681;28;20037;-75
2023/03/14 07:20:56;;;;;;;6.93;1.33;;;;;;;;;;5014084;28;20030;-75
2023/03/14 07:23:22;;;;;;;4.95;1.55;;;;;;;;;;5013891;28;20029;-74
2023/03/14 07:25:50;;;;;;;5.53;1.45;;;;;;;;;;5014480;28;20026;-76
2023/03/14 07:28:16;;;;;;;6.95;1.75;;;;;;;;;;5014516;28;20504;-77
2023/03/14 07:30:42;;;;;;;4.32;1.20;;;;;;;;;;5010299;28;20025;-74
2023/03/14 07:33:08;;;;;;;2.20;0.82;;;;;;;;;;5026097;28;20021;-76
2023/03/14 07:35:34;;;;;;;3.08;1.23;;;;;;;;;;5020308;28;20034;-75
2023/03/14 07:38:00;;;;;;;3.78;1.25;;;;;;;;;;5014671;28;20504;-76
2023/03/14 07:40:26;;;;;;;3.30;1.02;;;;;;;;;;5012656;28;20037;-74
2023/03/14 07:42:54;;;;;;;2.75;0.85;;;;;;;;;;5022210;28;20044;-76
2023/03/14 07:45:21;;;;;;;4.03;1.15;;;;;;;;;;5007347;28;20101;-74
2023/03/14 07:47:47;;;;;;;3.97;1.23;;;;;;;;;;5041300;28;20052;-73
2023/03/14 07:50:13;;;;;;;2.95;0.90;;;;;;;;;;5024272;28;20488;-73
2023/03/14 07:52:39;;;;;;;3.15;1.13;;;;;;;;;;5015815;28;20083;-73
2023/03/14 07:55:05;;;;;;;4.85;0.70;;;;;;;;;;5015380;28;20518;-74
2023/03/14 07:57:31;;;;;;;2.70;0.95;;;;;;;;;;5014612;28;20033;-74
2023/03/14 07:59:57;;;;;;;6.22;0.93;;;;;;;;;;5027519;28;20151;-72
2023/03/14 08:02:23;;;;;;;8.02;1.02;;;;;;;;;;5021403;28;20025;-74
2023/03/14 08:04:50;;;;;;;5.63;2.08;;;;;;;;;;5030521;28;20022;-73
2023/03/14 08:07:16;;;;;;;4.70;1.20;;;;;;;;;;5032421;28;20022;-74
2023/03/14 08:09:42;;;;;;;3.92;1.30;;;;;;;;;;5013564;28;20033;-73
2023/03/14 08:12:08;;;;;;;3.05;0.82;;;;;;;;;;5013541;28;20393;-72
2023/03/14 08:14:34;;;;;;;2.53;1.27;;;;;;;;;;5030038;28;20017;-75
2023/03/14 08:17:00;;;;;;;3.15;1.10;;;;;;;;;;5023450;28;20041;-75
2023/03/14 08:19:26;;;;;;;4.03;1.20;;;;;;;;;;5009025;28;20026;-75
2023/03/14 08:21:52;;;;;;;2.47;1.20;;;;;;;;;;5020784;28;20026;-74
2023/03/14 08:24:18;;;;;;;0.98;0.60;;;;;;;;;;5025876;28;20029;-74
2023/03/14 08:26:44;;;;;;;2.85;1.27;;;;;;;;;;5018494;28;20033;-74
2023/03/14 08:29:12;;;;;;;5.38;1.02;;;;;;;;;;5017571;28;20470;-75
2023/03/14 08:31:38;;;;;;;2.97;1.00;;;;;;;;;;5019765;28;20025;-75
2023/03/14 08:34:06;;;;;;;6.20;0.90;;;;;;;;;;5012688;28;20026;-73
2023/03/14 08:36:33;;;;;;;5.82;1.23;;;;;;;;;;5014179;28;20508;-75
2023/03/14 08:38:59;;;;;;;3.03;1.40;;;;;;;;;;5010715;28;20052;-75
2023/03/14 08:41:25;;;;;;;5.43;0.80;;;;;;;;;;5020024;28;20064;-74
2023/03/14 08:43:51;;;;;;;5.90;1.33;;;;;;;;;;5019796;28;20433;-74
2023/03/14 08:46:17;;;;;;;2.20;0.90;;;;;;;;;;5025081;28;20419;-74
2023/03/14 08:48:43;;;;;;;1.38;0.68;;;;;;;;;;5011511;28;20029;-77
2023/03/14 08:51:10;;;;;;;4.95;1.25;;;;;;;;;;5011656;28;20097;-73
2023/03/14 08:53:36;;;;;;;3.92;0.95;;;;;;;;;;5012305;28;20033;-72
2023/03/14 08:56:05;;;;;;;3.47;2.05;;;;;;;;;;5012150;28;20030;-72
2023/03/14 08:58:31;;;;;;;2.90;1.08;;;;;;;;;;5011923;28;20030;-73
2023/03/14 09:00:57;;;;;;;8.27;1.00;;;;;;;;;;4993553;28;20466;-72
2023/03/14 09:03:24;;;;;;;3.92;1.20;;;;;;;;;;5020252;28;20022;-73
2023/03/14 09:05:50;;;;;;;4.43;1.40;;;;;;;;;;5022336;28;20026;-72
2023/03/14 09:08:16;;;;;;;5.35;1.52;;;;;;;;;;5031419;28;20132;-73
2023/03/14 09:10:42;;;;;;;1.80;1.00;;;;;;;;;;5014374;28;20065;-73
2023/03/14 09:13:08;;;;;;;6.22;1.77;;;;;;;;;;5010041;28;20059;-75
2023/03/14 09:15:35;;;;;;;7.15;1.52;;;;;;;;;;5009533;28;20523;-73
2023/03/14 09:18:01;;;;;;;2.38;0.98;;;;;;;;;;5015394;28;20557;-74
2023/03/14 09:20:27;;;;;;;3.22;0.85;;;;;;;;;;5029818;28;20035;-75
2023/03/14 09:22:54;;;;;;;3.28;0.90;;;;;;;;;;5028937;28;20030;-74
2023/03/14 09:25:20;;;;;;;2.42;0.85;;;;;;;;;;5030179;28;20025;-73
2023/03/14 09:27:46;;;;;;;2.97;1.05;;;;;;;;;;5029992;28;20029;-74
2023/03/14 09:30:12;;;;;;;1.38;0.60;;;;;;;;;;5013215;28;20059;-74
2023/03/14 09:32:38;;;;;;;2.90;1.00;;;;;;;;;;5013476;28;20030;-71
2023/03/14 09:35:04;;;;;;;4.25;0.88;;;;;;;;;;5034256;28;20026;-72
2023/03/14 09:37:30;;;;;;;5.43;0.85;;;;;;;;;;5035116;28;20104;-74
2023/03/14 09:39:56;;;;;;;1.92;0.57;;;;;;;;;;5035681;28;20467;-73
2023/03/14 09:42:24;;;;;;;4.90;1.20;;;;;;;;;;5035238;28;20033;-73
2023/03/14 09:44:55;;;;;;;4.13;0.77;;;;;;;;;;5035320;28;20539;-73
2023/03/14 09:47:21;;;;;;;5.38;0.85;;;;;;;;;;5035097;28;20033;-73
2023/03/14 09:49:47;;;;;;;1.67;0.65;;;;;;;;;;5035503;28;20053;-74
2023/03/14 09:52:16;;;;;;;4.43;1.10;;;;;;;;;;5035718;28;20018;-74
2023/03/14 09:54:50;;;;;;;8.80;2.20;;;;;;;;;;5018520;28;20032;-73
2023/03/14 09:57:19;;;;;;;5.25;0.80;;;;;;;;;;5015327;28;20022;-73
2023/03/14 09:59:46;;;;;;;3.13;0.60;;;;;;;;;;5015313;28;20048;-75
2023/03/14 10:02:23;;;;;;;1.58;0.88;;;;;;;;;;5015207;28;20030;-74
2023/03/14 10:04:50;;;;;;;3.83;1.02;;;;;;;;;;5018834;28;20037;-73
2023/03/14 10:07:22;;;;;;;1.85;0.73;;;;;;;;;;5032248;28;20506;-73
2023/03/14 10:09:49;;;;;;;3.50;0.93;;;;;;;;;;5033222;28;20456;-74
2023/03/14 10:12:16;;;;;;;2.35;1.08;;;;;;;;;;5033418;28;20435;-74
2023/03/14 10:14:53;;;;;;;2.75;0.52;;;;;;;;;;5033015;28;20056;-73
2023/03/14 10:17:20;;;;;;;3.03;0.85;;;;;;;;;;5016961;28;20364;-73
2023/03/14 10:19:52;;;;;;;1.80;0.60;;;;;;;;;;4995432;28;20106;-72
2023/03/14 10:22:19;;;;;;;5.78;0.70;;;;;;;;;;5013238;28;20484;-73
2023/03/14 10:24:56;;;;;;;2.60;0.45;;;;;;;;;;5015115;28;20026;-73
2023/03/14 10:27:28;;;;;;;3.03;0.90;;;;;;;;;;4997115;28;20396;-74
2023/03/14 10:29:55;;;;;;;1.35;0.57;;;;;;;;;;5014481;28;20022;-73
2023/03/14 10:32:28;;;;;;;3.13;0.55;;;;;;;;;;5014669;28;20033;-74
2023/03/14 10:35:05;;;;;;;5.60;1.00;;;;;;;;;;5014706;28;20022;-73
2023/03/14 10:37:31;;;;;;;1.13;0.60;;;;;;;;;;5014567;28;20022;-74
2023/03/14 10:40:05;;;;;;;1.17;0.57;;;;;;;;;;5014497;28;20419;-74
2023/03/14 10:42:33;;;;;;;2.83;0.70;;;;;;;;;;5014628;28;20026;-74
2023/03/14 10:45:01;;;;;;;1.83;0.57;;;;;;;;;;5013822;28;20033;-74
2023/03/14 10:47:28;;;;;;;4.97;0.70;;;;;;;;;;5014233;28;20557;-75
2023/03/14 10:49:54;;;;;;;2.08;0.95;;;;;;;;;;4997077;28;20030;-73
2023/03/14 10:52:22;;;;;;;2.75;0.60;;;;;;;;;;5015130;28;20021;-74
2023/03/14 10:54:49;;;;;;;11.23;1.45;;;;;;;;;;5013953;28;20093;-73
2023/03/14 10:57:15;;;;;;;2.13;0.60;;;;;;;;;;5013948;28;20018;-74
2023/03/14 10:59:42;;;;;;;1.92;0.57;;;;;;;;;;5014319;28;20032;-75
2023/03/14 11:02:08;;;;;;;1.30;0.63;;;;;;;;;;4996506;28;20018;-73
2023/03/14 11:04:52;;;;;;;3.63;1.00;;;;;;;;;;5014531;28;20034;-75
2023/03/14 11:07:26;;;;;;;2.40;0.70;;;;;;;;;;5014959;28;20018;-73
2023/03/14 11:09:52;;;;;;;1.48;0.50;;;;;;;;;;5014733;28;20033;-73
2023/03/14 11:12:30;;;;;;;1.77;0.80;;;;;;;;;;5014348;28;20029;-74
2023/03/14 11:15:01;;;;;;;2.80;0.70;;;;;;;;;;5013695;28;20410;-74
2023/03/14 11:17:45;;;;;;;1.80;0.70;;;;;;;;;;5013548;28;20018;-71
2023/03/14 11:20:27;;;;;;;1.35;0.40;;;;;;;;;;5012075;28;20044;-74
2023/03/14 11:23:00;;;;;;;2.28;0.60;;;;;;;;;;5013985;28;20112;-72
2023/03/14 11:25:40;;;;;;;1.77;0.50;;;;;;;;;;5013730;28;20034;-73
2023/03/14 11:28:06;;;;;;;1.50;0.55;;;;;;;;;;5012426;28;20022;-73
2023/03/14 11:30:38;;;;;;;3.72;1.40;;;;;;;;;;5006365;28;20052;-73
2023/03/14 11:33:15;;;;;;;0.82;0.43;;;;;;;;;;5010430;28;20029;-73
2023/03/14 11:35:58;;;;;;;2.50;0.68;;;;;;;;;;5010531;28;20026;-73
2023/03/14 11:38:24;;;;;;;2.25;0.50;;;;;;;;;;5010886;28;20655;-74
2023/03/14 11:40:51;;;;;;;1.95;0.70;;;;;;;;;;5011130;28;20038;-71
2023/03/14 11:43:26;;;;;;;2.28;0.50;;;;;;;;;;5012206;28;20369;-75
2023/03/14 11:45:55;;;;;;;1.02;0.38;;;;;;;;;;5008951;28;20475;-76
2023/03/14 11:48:32;;;;;;;2.15;0.55;;;;;;;;;;5009447;28;20038;-74
2023/03/14 11:51:00;;;;;;;2.55;0.93;;;;;;;;;;5012009;28;20045;-73
2023/03/14 11:53:32;;;;;;;2.22;0.80;;;;;;;;;;5014132;28;20028;-74
2023/03/14 11:55:58;;;;;;;2.90;1.17;;;;;;;;;;5010254;28;20435;-73
2023/03/14 11:58:26;;;;;;;3.08;0.60;;;;;;;;;;5012536;28;20029;-73
2023/03/14 12:00:53;;;;;;;3.42;1.00;;;;;;;;;;5012642;28;20049;-74
2023/03/14 12:03:34;;;;;;;3.53;1.40;;;;;;;;;;5031678;28;20034;-74
2023/03/14 12:06:06;;;;;;;3.10;0.93;;;;;;;;;;5032629;28;20033;-74
2023/03/14 12:08:50;;;;;;;3.05;0.70;;;;;;;;;;5030979;28;20484;-72
2023/03/14 12:11:19;;;;;;;4.95;1.45;;;;;;;;;;5032012;28;20032;-73
2023/03/14 12:13:50;;;;;;;3.97;1.40;;;;;;;;;;5032941;28;20544;-73
2023/03/14 12:16:25;;;;;;;1.75;0.52;;;;;;;;;;5032143;28;20087;-73
2023/03/14 12:18:55;;;;;;;2.45;0.50;;;;;;;;;;5032450;28;20230;-74
2023/03/14 12:21:21;;;;;;;4.07;1.33;;;;;;;;;;5032619;28;20108;-74
2023/03/14 12:23:51;;;;;;;2.80;1.30;;;;;;;;;;5032196;28;20102;-74
2023/03/14 12:26:18;;;;;;;1.90;0.70;;;;;;;;;;5032176;28;20034;-74
2023/03/14 12:28:52;;;;;;;2.05;0.30;;;;;;;;;;5014285;28;20025;-73
2023/03/14 12:31:30;;;;;;;3.13;0.65;;;;;;;;;;5032367;28;20029;-73
2023/03/14 12:34:04;;;;;;;2.75;0.70;;;;;;;;;;5032344;28;20104;-75
2023/03/14 12:36:51;;;;;;;3.47;0.93;;;;;;;;;;5032222;28;20040;-73
2023/03/14 12:39:23;;;;;;;1.45;0.52;;;;;;;;;;5031809;28;20025;-70
2023/03/14 12:41:52;;;;;;;1.60;0.80;;;;;;;;;;5014439;28;20028;-73
2023/03/14 12:44:40;;;;;;;1.50;0.63;;;;;;;;;;5033007;28;20471;-72
2023/03/14 12:47:18;;;;;;;1.58;0.32;;;;;;;;;;5031586;28;20116;-74
2023/03/14 12:49:45;;;;;;;1.08;0.40;;;;;;;;;;5031834;28;20034;-73
2023/03/14 12:52:20;;;;;;;0.85;0.35;;;;;;;;;;5014301;28;20025;-73
2023/03/14 12:54:58;;;;;;;1.85;0.50;;;;;;;;;;5029584;28;20026;-73
2023/03/14 12:57:25;;;;;;;2.33;0.35;;;;;;;;;;5020280;28;20026;-74
2023/03/14 12:59:58;;;;;;;3.22;0.80;;;;;;;;;;5021021;28;20369;-73
2023/03/14 13:02:26;;;;;;;2.28;0.40;;;;;;;;;;5012105;28;20068;-74
2023/03/14 13:05:04;;;;;;;1.52;0.50;;;;;;;;;;5011609;28;20373;-72
2023/03/14 13:07:57;;;;;;;1.85;0.50;;;;;;;;;;4992898;28;20026;-71
2023/03/14 13:10:30;;;;;;;2.75;0.47;;;;;;;;;;4993420;28;20018;-72
2023/03/14 13:13:03;;;;;;;0.38;0.20;;;;;;;;;;5011206;28;20201;-71
2023/03/14 13:15:35;;;;;;;2.83;0.32;;;;;;;;;;5011594;28;20148;-74
2023/03/14 13:18:10;;;;;;;3.03;0.52;;;;;;;;;;5011532;28;20701;-74
2023/03/14 13:20:57;;;;;;;5.68;1.00;;;;;;;;;;4994304;28;20500;-73
2023/03/14 13:23:28;;;;;;;3.50;0.30;;;;;;;;;;5009070;28;20068;-72
2023/03/14 13:25:54;;;;;;;1.15;0.40;;;;;;;;;;5012358;28;20030;-73
2023/03/14 13:28:20;;;;;;;1.83;0.38;;;;;;;;;;5011864;28;20068;-74
2023/03/14 13:30:48;;;;;;;1.42;0.35;;;;;;;;;;4999355;28;20026;-74
2023/03/14 13:33:21;;;;;;;0.93;0.35;;;;;;;;;;5022347;28;20539;-74
2023/03/14 13:35:48;;;;;;;0.77;0.35;;;;;;;;;;5022043;28;20373;-73
2023/03/14 13:38:20;;;;;;;0.90;0.20;;;;;;;;;;5017753;28;20146;-74
2023/03/14 13:40:47;;;;;;;2.47;0.32;;;;;;;;;;4990725;28;20517;-73
2023/03/14 13:43:18;;;;;;;1.02;0.20;;;;;;;;;;4974928;28;20424;-73
2023/03/14 13:45:55;;;;;;;1.90;0.60;;;;;;;;;;4992109;28;20022;-72
2023/03/14 13:48:21;;;;;;;5.35;0.85;;;;;;;;;;4992123;28;20030;-74
2023/03/14 13:50:55;;;;;;;0.77;0.20;;;;;;;;;;4991910;28;20022;-74
2023/03/14 13:53:22;;;;;;;4.60;0.30;;;;;;;;;;4992114;28;20023;-74
2023/03/14 13:55:48;;;;;;;2.45;0.40;;;;;;;;;;4992060;28;20062;-73
2023/03/14 13:58:21;;;;;;;2.25;0.50;;;;;;;;;;4991775;28;20760;-73
2023/03/14 14:00:54;;;;;;;5.25;0.30;;;;;;;;;;4992007;28;20038;-74
2023/03/14 14:03:20;;;;;;;0.98;0.52;;;;;;;;;;4991991;28;20067;-75
2023/03/14 14:05:47;;;;;;;0.57;0.30;;;;;;;;;;4991745;28;20391;-73
2023/03/14 14:08:13;;;;;;;1.15;0.47;;;;;;;;;;4991761;28;20057;-73
2023/03/14 14:10:39;;;;;;;1.70;0.40;;;;;;;;;;4991715;28;20018;-74
2023/03/14 14:13:09;;;;;;;0.28;0.20;;;;;;;;;;4991602;28;20050;-73
2023/03/14 14:15:40;;;;;;;3.47;0.55;;;;;;;;;;4991879;28;20369;-73
2023/03/14 14:18:07;;;;;;;2.00;0.52;;;;;;;;;;4991447;28;20030;-73
2023/03/14 14:20:35;;;;;;;1.17;0.20;;;;;;;;;;4992577;28;20027;-73
2023/03/14 14:23:02;;;;;;;4.00;0.60;;;;;;;;;;4995046;28;20365;-74
2023/03/14 14:25:31;;;;;;;0.45;0.30;;;;;;;;;;4994998;28;20061;-73
2023/03/14 14:27:57;;;;;;;1.63;0.20;;;;;;;;;;4994998;28;20034;-73
2023/03/14 14:30:29;;;;;;;0.63;0.38;;;;;;;;;;4995493;28;20392;-73
2023/03/14 14:33:10;;;;;;;1.35;0.38;;;;;;;;;;4995161;28;20027;-73
2023/03/14 14:35:36;;;;;;;1.10;0.20;;;;;;;;;;4995038;28;20069;-74
2023/03/14 14:38:03;;;;;;;0.63;0.47;;;;;;;;;;4994585;28;20030;-72
2023/03/14 14:40:30;;;;;;;1.30;0.30;;;;;;;;;;4994800;28;20030;-73
2023/03/14 14:43:02;;;;;;;1.13;0.30;;;;;;;;;;4994904;28;20030;-75
2023/03/14 14:45:28;;;;;;;1.10;0.40;;;;;;;;;;4995010;28;20122;-74
2023/03/14 14:47:55;;;;;;;0.85;0.10;;;;;;;;;;4994624;28;20396;-73